Terminal Aerodrome Forecast
Issued by NWS

Home | Current Version | Previous Version | Text Only | Print | Product List | Glossary On
Versions: 1 2 3 4 5 6 7 8 9 10 11 12
454
FTUS43 KMPX 282327
TAFRWF
TAF
KRWF 282327Z 2900/2924 30012G19KT P6SM SCT060
     FM291200 30006KT P6SM BKN060
     FM291500 34006KT P6SM SCT090
     FM291800 34005KT P6SM SCT040 BKN110=

USA.gov is the U.S. government's official web portal to all federal, state and local government web resources and services.